sensor_id;sensor_type;location;lat;lon;timestamp;P1;durP1;ratioP1;P2;durP2;ratioP2
33108;SDS011;19481;51.118;6.940;2023-06-10T00:03:01;5.75;;;4.28;;
33108;SDS011;19481;51.118;6.940;2023-06-10T00:08:03;5.28;;;4.07;;
33108;SDS011;19481;51.118;6.940;2023-06-10T00:13:09;6.43;;;4.20;;
33108;SDS011;19481;51.118;6.940;2023-06-10T00:18:11;7.65;;;3.65;;
33108;SDS011;19481;51.118;6.940;2023-06-10T00:23:12;6.13;;;4.15;;
33108;SDS011;19481;51.118;6.940;2023-06-10T00:28:16;4.18;;;3.80;;
33108;SDS011;19481;51.118;6.940;2023-06-10T00:33:17;5.85;;;3.58;;
33108;SDS011;19481;51.118;6.940;2023-06-10T00:38:19;4.55;;;3.80;;
33108;SDS011;19481;51.118;6.940;2023-06-10T00:43:22;5.03;;;3.95;;
33108;SDS011;19481;51.118;6.940;2023-06-10T00:48:23;5.70;;;4.07;;
33108;SDS011;19481;51.118;6.940;2023-06-10T00:53:25;4.57;;;3.80;;
33108;SDS011;19481;51.118;6.940;2023-06-10T00:58:30;7.45;;;3.85;;
33108;SDS011;19481;51.118;6.940;2023-06-10T01:03:32;5.50;;;3.65;;
33108;SDS011;19481;51.118;6.940;2023-06-10T01:08:38;3.90;;;3.45;;
33108;SDS011;19481;51.118;6.940;2023-06-10T01:13:47;8.05;;;4.57;;
33108;SDS011;19481;51.118;6.940;2023-06-10T01:18:52;4.63;;;4.13;;
33108;SDS011;19481;51.118;6.940;2023-06-10T01:23:56;6.13;;;4.65;;
33108;SDS011;19481;51.118;6.940;2023-06-10T01:28:58;5.00;;;3.63;;
33108;SDS011;19481;51.118;6.940;2023-06-10T01:34:06;5.33;;;4.40;;
33108;SDS011;19481;51.118;6.940;2023-06-10T01:39:11;4.72;;;3.92;;
33108;SDS011;19481;51.118;6.940;2023-06-10T01:44:17;5.13;;;4.57;;
33108;SDS011;19481;51.118;6.940;2023-06-10T01:49:19;7.07;;;4.57;;
33108;SDS011;19481;51.118;6.940;2023-06-10T01:54:23;5.45;;;4.18;;
33108;SDS011;19481;51.118;6.940;2023-06-10T01:59:25;6.82;;;4.20;;
33108;SDS011;19481;51.118;6.940;2023-06-10T02:04:26;4.78;;;4.25;;
33108;SDS011;19481;51.118;6.940;2023-06-10T02:09:29;5.82;;;4.22;;
33108;SDS011;19481;51.118;6.940;2023-06-10T02:14:31;7.07;;;5.07;;
33108;SDS011;19481;51.118;6.940;2023-06-10T02:19:33;6.40;;;4.40;;
33108;SDS011;19481;51.118;6.940;2023-06-10T02:24:38;7.00;;;4.15;;
33108;SDS011;19481;51.118;6.940;2023-06-10T02:29:39;5.00;;;4.50;;
33108;SDS011;19481;51.118;6.940;2023-06-10T02:34:42;5.22;;;4.72;;
33108;SDS011;19481;51.118;6.940;2023-06-10T02:39:45;6.57;;;4.90;;
33108;SDS011;19481;51.118;6.940;2023-06-10T02:44:46;5.85;;;5.10;;
33108;SDS011;19481;51.118;6.940;2023-06-10T02:49:48;5.95;;;5.07;;
33108;SDS011;19481;51.118;6.940;2023-06-10T02:54:51;13.52;;;5.25;;
33108;SDS011;19481;51.118;6.940;2023-06-10T02:59:53;6.80;;;5.60;;
33108;SDS011;19481;51.118;6.940;2023-06-10T03:04:54;5.53;;;5.03;;
33108;SDS011;19481;51.118;6.940;2023-06-10T03:09:57;8.88;;;5.25;;
33108;SDS011;19481;51.118;6.940;2023-06-10T03:14:59;7.35;;;5.13;;
33108;SDS011;19481;51.118;6.940;2023-06-10T03:20:01;8.75;;;5.85;;
33108;SDS011;19481;51.118;6.940;2023-06-10T03:25:04;8.70;;;5.32;;
33108;SDS011;19481;51.118;6.940;2023-06-10T03:30:08;11.30;;;4.90;;
33108;SDS011;19481;51.118;6.940;2023-06-10T03:35:10;5.38;;;4.70;;
33108;SDS011;19481;51.118;6.940;2023-06-10T03:40:13;8.45;;;5.18;;
33108;SDS011;19481;51.118;6.940;2023-06-10T03:45:15;6.40;;;5.80;;
33108;SDS011;19481;51.118;6.940;2023-06-10T03:50:17;5.53;;;4.90;;
33108;SDS011;19481;51.118;6.940;2023-06-10T03:55:20;6.70;;;4.38;;
33108;SDS011;19481;51.118;6.940;2023-06-10T04:00:23;9.07;;;4.95;;
33108;SDS011;19481;51.118;6.940;2023-06-10T04:05:25;5.93;;;4.85;;
33108;SDS011;19481;51.118;6.940;2023-06-10T04:10:30;5.80;;;5.15;;
33108;SDS011;19481;51.118;6.940;2023-06-10T04:15:31;6.72;;;4.63;;
33108;SDS011;19481;51.118;6.940;2023-06-10T04:20:33;5.30;;;4.72;;
33108;SDS011;19481;51.118;6.940;2023-06-10T04:25:36;5.78;;;5.03;;
33108;SDS011;19481;51.118;6.940;2023-06-10T04:30:38;5.88;;;4.57;;
33108;SDS011;19481;51.118;6.940;2023-06-10T04:35:39;6.15;;;5.10;;
33108;SDS011;19481;51.118;6.940;2023-06-10T04:40:42;7.88;;;5.20;;
33108;SDS011;19481;51.118;6.940;2023-06-10T04:45:44;6.78;;;5.28;;
33108;SDS011;19481;51.118;6.940;2023-06-10T04:50:45;7.85;;;4.85;;
33108;SDS011;19481;51.118;6.940;2023-06-10T04:55:48;7.90;;;5.47;;
33108;SDS011;19481;51.118;6.940;2023-06-10T05:00:50;8.80;;;5.05;;
33108;SDS011;19481;51.118;6.940;2023-06-10T05:05:52;5.45;;;4.63;;
33108;SDS011;19481;51.118;6.940;2023-06-10T05:10:55;5.97;;;4.90;;
33108;SDS011;19481;51.118;6.940;2023-06-10T05:15:56;7.22;;;4.90;;
33108;SDS011;19481;51.118;6.940;2023-06-10T05:20:58;10.05;;;5.10;;
33108;SDS011;19481;51.118;6.940;2023-06-10T05:26:01;5.82;;;4.28;;
33108;SDS011;19481;51.118;6.940;2023-06-10T05:31:03;8.00;;;4.57;;
33108;SDS011;19481;51.118;6.940;2023-06-10T05:36:05;7.22;;;4.47;;
33108;SDS011;19481;51.118;6.940;2023-06-10T05:41:08;6.03;;;4.32;;
33108;SDS011;19481;51.118;6.940;2023-06-10T05:46:09;4.95;;;4.38;;
33108;SDS011;19481;51.118;6.940;2023-06-10T05:51:11;4.35;;;3.85;;
33108;SDS011;19481;51.118;6.940;2023-06-10T05:56:14;6.30;;;4.38;;
33108;SDS011;19481;51.118;6.940;2023-06-10T06:01:16;4.72;;;3.92;;
33108;SDS011;19481;51.118;6.940;2023-06-10T06:06:18;4.47;;;3.75;;
33108;SDS011;19481;51.118;6.940;2023-06-10T06:11:21;4.40;;;3.53;;
33108;SDS011;19481;51.118;6.940;2023-06-10T06:16:24;6.03;;;3.95;;
33108;SDS011;19481;51.118;6.940;2023-06-10T06:21:25;5.03;;;4.22;;
33108;SDS011;19481;51.118;6.940;2023-06-10T06:26:28;4.72;;;3.70;;
33108;SDS011;19481;51.118;6.940;2023-06-10T06:31:30;4.22;;;3.60;;
33108;SDS011;19481;51.118;6.940;2023-06-10T06:36:32;5.30;;;3.60;;
33108;SDS011;19481;51.118;6.940;2023-06-10T06:41:35;5.32;;;3.85;;
33108;SDS011;19481;51.118;6.940;2023-06-10T06:46:36;4.80;;;3.83;;
33108;SDS011;19481;51.118;6.940;2023-06-10T06:51:38;4.43;;;3.55;;
33108;SDS011;19481;51.118;6.940;2023-06-10T06:56:41;3.53;;;2.97;;
33108;SDS011;19481;51.118;6.940;2023-06-10T07:01:42;3.60;;;3.28;;
33108;SDS011;19481;51.118;6.940;2023-06-10T07:06:44;5.85;;;3.97;;
33108;SDS011;19481;51.118;6.940;2023-06-10T07:11:47;3.35;;;3.05;;
33108;SDS011;19481;51.118;6.940;2023-06-10T07:16:49;5.05;;;3.33;;
33108;SDS011;19481;51.118;6.940;2023-06-10T07:21:50;5.10;;;3.25;;
33108;SDS011;19481;51.118;6.940;2023-06-10T07:26:53;3.75;;;3.35;;
33108;SDS011;19481;51.118;6.940;2023-06-10T07:31:55;4.85;;;3.28;;
33108;SDS011;19481;51.118;6.940;2023-06-10T07:36:56;3.30;;;2.88;;
33108;SDS011;19481;51.118;6.940;2023-06-10T07:41:59;4.72;;;2.97;;
33108;SDS011;19481;51.118;6.940;2023-06-10T07:47:01;7.22;;;3.85;;
33108;SDS011;19481;51.118;6.940;2023-06-10T07:52:03;4.32;;;2.97;;
33108;SDS011;19481;51.118;6.940;2023-06-10T07:57:06;6.97;;;3.55;;
33108;SDS011;19481;51.118;6.940;2023-06-10T08:02:08;4.60;;;3.25;;
33108;SDS011;19481;51.118;6.940;2023-06-10T08:07:10;4.50;;;3.22;;
33108;SDS011;19481;51.118;6.940;2023-06-10T08:12:13;4.30;;;3.60;;
33108;SDS011;19481;51.118;6.940;2023-06-10T08:17:15;4.13;;;3.50;;
33108;SDS011;19481;51.118;6.940;2023-06-10T08:22:16;6.40;;;3.63;;
33108;SDS011;19481;51.118;6.940;2023-06-10T08:27:19;8.55;;;3.78;;
33108;SDS011;19481;51.118;6.940;2023-06-10T08:32:21;4.63;;;3.35;;
33108;SDS011;19481;51.118;6.940;2023-06-10T08:37:23;9.45;;;3.67;;
33108;SDS011;19481;51.118;6.940;2023-06-10T08:42:28;5.18;;;3.47;;
33108;SDS011;19481;51.118;6.940;2023-06-10T08:47:34;8.32;;;7.03;;
33108;SDS011;19481;51.118;6.940;2023-06-10T08:52:36;4.82;;;3.63;;
33108;SDS011;19481;51.118;6.940;2023-06-10T08:57:40;5.55;;;3.90;;
33108;SDS011;19481;51.118;6.940;2023-06-10T09:02:42;10.32;;;3.95;;
33108;SDS011;19481;51.118;6.940;2023-06-10T09:07:45;4.30;;;3.60;;
33108;SDS011;19481;51.118;6.940;2023-06-10T09:12:50;4.82;;;3.70;;
33108;SDS011;19481;51.118;6.940;2023-06-10T09:17:51;4.55;;;3.72;;
33108;SDS011;19481;51.118;6.940;2023-06-10T09:22:53;5.35;;;3.47;;
33108;SDS011;19481;51.118;6.940;2023-06-10T09:27:56;5.88;;;4.07;;
33108;SDS011;19481;51.118;6.940;2023-06-10T09:33:00;4.38;;;3.40;;
33108;SDS011;19481;51.118;6.940;2023-06-10T09:38:03;4.17;;;3.77;;
33108;SDS011;19481;51.118;6.940;2023-06-10T09:43:06;6.18;;;3.72;;
33108;SDS011;19481;51.118;6.940;2023-06-10T09:48:08;4.60;;;3.72;;
33108;SDS011;19481;51.118;6.940;2023-06-10T09:53:09;5.47;;;3.97;;
33108;SDS011;19481;51.118;6.940;2023-06-10T09:58:12;4.72;;;4.32;;
33108;SDS011;19481;51.118;6.940;2023-06-10T10:03:16;4.85;;;3.90;;
33108;SDS011;19481;51.118;6.940;2023-06-10T10:08:23;4.95;;;4.22;;
33108;SDS011;19481;51.118;6.940;2023-06-10T10:13:27;11.35;;;4.40;;
33108;SDS011;19481;51.118;6.940;2023-06-10T10:18:30;7.93;;;4.35;;
33108;SDS011;19481;51.118;6.940;2023-06-10T10:23:34;6.53;;;4.28;;
33108;SDS011;19481;51.118;6.940;2023-06-10T10:28:45;6.60;;;4.30;;
33108;SDS011;19481;51.118;6.940;2023-06-10T10:33:51;6.72;;;3.83;;
33108;SDS011;19481;51.118;6.940;2023-06-10T10:38:56;7.05;;;4.05;;
33108;SDS011;19481;51.118;6.940;2023-06-10T10:44:03;6.75;;;3.65;;
33108;SDS011;19481;51.118;6.940;2023-06-10T10:49:07;7.15;;;4.22;;
33108;SDS011;19481;51.118;6.940;2023-06-10T10:54:11;4.32;;;3.83;;
33108;SDS011;19481;51.118;6.940;2023-06-10T10:59:15;8.93;;;4.28;;
33108;SDS011;19481;51.118;6.940;2023-06-10T11:04:19;8.73;;;4.13;;
33108;SDS011;19481;51.118;6.940;2023-06-10T11:09:25;4.43;;;4.03;;
33108;SDS011;19481;51.118;6.940;2023-06-10T11:14:29;7.68;;;4.68;;
33108;SDS011;19481;51.118;6.940;2023-06-10T11:19:31;4.60;;;3.65;;
33108;SDS011;19481;51.118;6.940;2023-06-10T11:24:34;5.00;;;4.50;;
33108;SDS011;19481;51.118;6.940;2023-06-10T11:29:37;6.57;;;4.43;;
33108;SDS011;19481;51.118;6.940;2023-06-10T11:34:39;6.88;;;4.05;;
33108;SDS011;19481;51.118;6.940;2023-06-10T11:39:41;4.60;;;3.90;;
33108;SDS011;19481;51.118;6.940;2023-06-10T11:44:48;6.03;;;3.83;;
33108;SDS011;19481;51.118;6.940;2023-06-10T11:49:55;6.35;;;3.80;;
33108;SDS011;19481;51.118;6.940;2023-06-10T11:54:57;4.03;;;3.63;;
33108;SDS011;19481;51.118;6.940;2023-06-10T12:00:04;4.85;;;3.55;;
33108;SDS011;19481;51.118;6.940;2023-06-10T12:05:11;5.57;;;3.83;;
33108;SDS011;19481;51.118;6.940;2023-06-10T12:10:12;4.07;;;3.72;;
33108;SDS011;19481;51.118;6.940;2023-06-10T12:15:24;5.75;;;4.05;;
33108;SDS011;19481;51.118;6.940;2023-06-10T12:20:27;4.57;;;3.85;;
33108;SDS011;19481;51.118;6.940;2023-06-10T12:25:29;3.83;;;3.47;;
33108;SDS011;19481;51.118;6.940;2023-06-10T12:30:33;4.45;;;3.88;;
33108;SDS011;19481;51.118;6.940;2023-06-10T12:35:34;4.47;;;3.75;;
33108;SDS011;19481;51.118;6.940;2023-06-10T12:40:49;5.82;;;3.95;;
33108;SDS011;19481;51.118;6.940;2023-06-10T12:45:53;4.72;;;3.85;;
33108;SDS011;19481;51.118;6.940;2023-06-10T12:50:56;3.78;;;3.47;;
33108;SDS011;19481;51.118;6.940;2023-06-10T12:55:58;6.32;;;3.63;;
33108;SDS011;19481;51.118;6.940;2023-06-10T13:01:03;4.00;;;3.55;;
33108;SDS011;19481;51.118;6.940;2023-06-10T13:06:05;4.65;;;3.55;;
33108;SDS011;19481;51.118;6.940;2023-06-10T13:11:07;7.18;;;3.63;;
33108;SDS011;19481;51.118;6.940;2023-06-10T13:16:10;7.60;;;3.83;;
33108;SDS011;19481;51.118;6.940;2023-06-10T13:21:11;5.47;;;3.47;;
33108;SDS011;19481;51.118;6.940;2023-06-10T13:26:13;4.60;;;3.60;;
33108;SDS011;19481;51.118;6.940;2023-06-10T13:31:18;4.30;;;3.90;;
33108;SDS011;19481;51.118;6.940;2023-06-10T13:36:20;4.18;;;3.15;;
33108;SDS011;19481;51.118;6.940;2023-06-10T13:41:22;3.60;;;3.25;;
33108;SDS011;19481;51.118;6.940;2023-06-10T13:46:26;4.72;;;3.90;;
33108;SDS011;19481;51.118;6.940;2023-06-10T13:51:27;8.27;;;3.70;;
33108;SDS011;19481;51.118;6.940;2023-06-10T13:56:29;3.95;;;3.53;;
33108;SDS011;19481;51.118;6.940;2023-06-10T14:01:32;4.68;;;3.60;;
33108;SDS011;19481;51.118;6.940;2023-06-10T14:06:34;4.72;;;3.63;;
33108;SDS011;19481;51.118;6.940;2023-06-10T14:11:36;5.78;;;3.33;;
33108;SDS011;19481;51.118;6.940;2023-06-10T14:16:38;3.75;;;3.45;;
33108;SDS011;19481;51.118;6.940;2023-06-10T14:21:40;5.35;;;3.53;;
33108;SDS011;19481;51.118;6.940;2023-06-10T14:26:42;3.35;;;3.08;;
33108;SDS011;19481;51.118;6.940;2023-06-10T14:31:44;3.78;;;3.40;;
33108;SDS011;19481;51.118;6.940;2023-06-10T14:36:46;8.75;;;3.50;;
33108;SDS011;19481;51.118;6.940;2023-06-10T14:41:48;6.03;;;3.40;;
33108;SDS011;19481;51.118;6.940;2023-06-10T14:46:51;5.57;;;4.28;;
33108;SDS011;19481;51.118;6.940;2023-06-10T14:51:52;3.53;;;3.22;;
33108;SDS011;19481;51.118;6.940;2023-06-10T14:56:54;6.97;;;3.50;;
33108;SDS011;19481;51.118;6.940;2023-06-10T15:01:57;4.93;;;3.58;;
33108;SDS011;19481;51.118;6.940;2023-06-10T15:07:00;4.65;;;3.20;;
33108;SDS011;19481;51.118;6.940;2023-06-10T15:12:02;4.90;;;4.45;;
33108;SDS011;19481;51.118;6.940;2023-06-10T15:17:07;5.95;;;3.67;;
33108;SDS011;19481;51.118;6.940;2023-06-10T15:22:08;5.97;;;3.28;;
33108;SDS011;19481;51.118;6.940;2023-06-10T15:27:11;3.47;;;3.15;;
33108;SDS011;19481;51.118;6.940;2023-06-10T15:32:14;3.80;;;3.42;;
33108;SDS011;19481;51.118;6.940;2023-06-10T15:37:16;5.35;;;3.22;;
33108;SDS011;19481;51.118;6.940;2023-06-10T15:42:18;3.60;;;3.30;;
33108;SDS011;19481;51.118;6.940;2023-06-10T15:47:21;5.13;;;3.45;;
33108;SDS011;19481;51.118;6.940;2023-06-10T15:52:22;4.35;;;2.75;;
33108;SDS011;19481;51.118;6.940;2023-06-10T15:57:24;2.88;;;2.60;;
33108;SDS011;19481;51.118;6.940;2023-06-10T16:02:27;3.22;;;2.60;;
33108;SDS011;19481;51.118;6.940;2023-06-10T16:07:28;6.88;;;3.47;;
33108;SDS011;19481;51.118;6.940;2023-06-10T16:12:30;4.15;;;3.75;;
33108;SDS011;19481;51.118;6.940;2023-06-10T16:17:33;4.32;;;3.13;;
33108;SDS011;19481;51.118;6.940;2023-06-10T16:22:34;3.08;;;2.70;;
33108;SDS011;19481;51.118;6.940;2023-06-10T16:27:36;3.50;;;2.83;;
33108;SDS011;19481;51.118;6.940;2023-06-10T16:32:39;3.45;;;2.42;;
33108;SDS011;19481;51.118;6.940;2023-06-10T16:37:41;2.78;;;2.58;;
33108;SDS011;19481;51.118;6.940;2023-06-10T16:42:43;7.38;;;2.92;;
33108;SDS011;19481;51.118;6.940;2023-06-10T16:47:46;2.75;;;2.53;;
33108;SDS011;19481;51.118;6.940;2023-06-10T16:52:47;2.85;;;2.55;;
33108;SDS011;19481;51.118;6.940;2023-06-10T16:57:50;4.75;;;2.78;;
33108;SDS011;19481;51.118;6.940;2023-06-10T17:02:52;4.47;;;2.92;;
33108;SDS011;19481;51.118;6.940;2023-06-10T17:07:54;4.90;;;2.78;;
33108;SDS011;19481;51.118;6.940;2023-06-10T17:12:56;3.95;;;2.85;;
33108;SDS011;19481;51.118;6.940;2023-06-10T17:17:59;3.70;;;2.53;;
33108;SDS011;19481;51.118;6.940;2023-06-10T17:23:00;2.88;;;2.60;;
33108;SDS011;19481;51.118;6.940;2023-06-10T17:28:02;4.70;;;3.03;;
33108;SDS011;19481;51.118;6.940;2023-06-10T17:33:05;3.25;;;2.78;;
33108;SDS011;19481;51.118;6.940;2023-06-10T17:38:06;5.40;;;3.13;;
33108;SDS011;19481;51.118;6.940;2023-06-10T17:43:08;3.45;;;3.00;;
33108;SDS011;19481;51.118;6.940;2023-06-10T17:48:11;4.68;;;2.97;;
33108;SDS011;19481;51.118;6.940;2023-06-10T17:53:13;4.38;;;2.83;;
33108;SDS011;19481;51.118;6.940;2023-06-10T17:58:14;3.60;;;2.88;;
33108;SDS011;19481;51.118;6.940;2023-06-10T18:03:17;4.78;;;3.30;;
33108;SDS011;19481;51.118;6.940;2023-06-10T18:08:25;3.20;;;2.90;;
33108;SDS011;19481;51.118;6.940;2023-06-10T18:13:28;7.20;;;3.35;;
33108;SDS011;19481;51.118;6.940;2023-06-10T18:18:31;5.35;;;3.10;;
33108;SDS011;19481;51.118;6.940;2023-06-10T18:23:32;9.95;;;2.95;;
33108;SDS011;19481;51.118;6.940;2023-06-10T18:28:34;5.53;;;3.20;;
33108;SDS011;19481;51.118;6.940;2023-06-10T18:33:37;3.88;;;2.97;;
33108;SDS011;19481;51.118;6.940;2023-06-10T18:38:38;9.02;;;3.03;;
33108;SDS011;19481;51.118;6.940;2023-06-10T18:43:40;5.10;;;2.70;;
33108;SDS011;19481;51.118;6.940;2023-06-10T18:48:43;4.25;;;2.67;;
33108;SDS011;19481;51.118;6.940;2023-06-10T18:53:47;4.25;;;3.10;;
33108;SDS011;19481;51.118;6.940;2023-06-10T18:58:48;3.20;;;2.90;;
33108;SDS011;19481;51.118;6.940;2023-06-10T19:03:52;3.65;;;3.15;;
33108;SDS011;19481;51.118;6.940;2023-06-10T19:08:53;3.33;;;2.80;;
33108;SDS011;19481;51.118;6.940;2023-06-10T19:13:55;4.03;;;3.10;;
33108;SDS011;19481;51.118;6.940;2023-06-10T19:18:58;3.28;;;2.97;;
33108;SDS011;19481;51.118;6.940;2023-06-10T19:23:59;5.07;;;3.10;;
33108;SDS011;19481;51.118;6.940;2023-06-10T19:29:01;5.35;;;3.35;;
33108;SDS011;19481;51.118;6.940;2023-06-10T19:34:04;6.03;;;3.28;;
33108;SDS011;19481;51.118;6.940;2023-06-10T19:39:06;6.47;;;3.50;;
33108;SDS011;19481;51.118;6.940;2023-06-10T19:44:07;3.28;;;2.92;;
33108;SDS011;19481;51.118;6.940;2023-06-10T19:49:10;4.13;;;3.65;;
33108;SDS011;19481;51.118;6.940;2023-06-10T19:54:12;4.53;;;3.25;;
33108;SDS011;19481;51.118;6.940;2023-06-10T19:59:13;3.60;;;3.30;;
33108;SDS011;19481;51.118;6.940;2023-06-10T20:04:16;5.35;;;3.53;;
33108;SDS011;19481;51.118;6.940;2023-06-10T20:09:18;3.75;;;3.28;;
33108;SDS011;19481;51.118;6.940;2023-06-10T20:14:20;4.18;;;3.30;;
33108;SDS011;19481;51.118;6.940;2023-06-10T20:19:23;14.20;;;4.00;;
33108;SDS011;19481;51.118;6.940;2023-06-10T20:24:24;7.15;;;3.75;;
33108;SDS011;19481;51.118;6.940;2023-06-10T20:29:26;5.60;;;3.92;;
33108;SDS011;19481;51.118;6.940;2023-06-10T20:34:29;4.97;;;3.88;;
33108;SDS011;19481;51.118;6.940;2023-06-10T20:39:30;9.35;;;3.90;;
33108;SDS011;19481;51.118;6.940;2023-06-10T20:44:32;5.57;;;4.38;;
33108;SDS011;19481;51.118;6.940;2023-06-10T20:49:35;6.50;;;4.07;;
33108;SDS011;19481;51.118;6.940;2023-06-10T20:54:36;4.75;;;4.05;;
33108;SDS011;19481;51.118;6.940;2023-06-10T20:59:38;5.70;;;3.78;;
33108;SDS011;19481;51.118;6.940;2023-06-10T21:04:42;4.97;;;3.67;;
33108;SDS011;19481;51.118;6.940;2023-06-10T21:09:43;4.28;;;3.45;;
33108;SDS011;19481;51.118;6.940;2023-06-10T21:14:45;4.70;;;3.65;;
33108;SDS011;19481;51.118;6.940;2023-06-10T21:19:48;6.80;;;3.88;;
33108;SDS011;19481;51.118;6.940;2023-06-10T21:24:49;5.57;;;3.30;;
33108;SDS011;19481;51.118;6.940;2023-06-10T21:29:51;6.20;;;3.47;;
33108;SDS011;19481;51.118;6.940;2023-06-10T21:34:54;4.70;;;3.55;;
33108;SDS011;19481;51.118;6.940;2023-06-10T21:39:55;5.60;;;3.97;;
33108;SDS011;19481;51.118;6.940;2023-06-10T21:44:57;6.18;;;3.55;;
33108;SDS011;19481;51.118;6.940;2023-06-10T21:50:00;6.55;;;4.10;;
33108;SDS011;19481;51.118;6.940;2023-06-10T21:55:01;7.95;;;4.00;;
33108;SDS011;19481;51.118;6.940;2023-06-10T22:00:04;8.13;;;3.92;;
33108;SDS011;19481;51.118;6.940;2023-06-10T22:05:12;4.78;;;3.33;;
33108;SDS011;19481;51.118;6.940;2023-06-10T22:10:14;4.50;;;4.10;;
33108;SDS011;19481;51.118;6.940;2023-06-10T22:15:15;4.78;;;3.63;;
33108;SDS011;19481;51.118;6.940;2023-06-10T22:20:18;5.45;;;4.07;;
33108;SDS011;19481;51.118;6.940;2023-06-10T22:25:20;3.97;;;3.08;;
33108;SDS011;19481;51.118;6.940;2023-06-10T22:30:22;3.90;;;3.45;;
33108;SDS011;19481;51.118;6.940;2023-06-10T22:35:25;5.93;;;3.85;;
33108;SDS011;19481;51.118;6.940;2023-06-10T22:40:26;3.95;;;3.53;;
33108;SDS011;19481;51.118;6.940;2023-06-10T22:45:28;7.70;;;3.42;;
33108;SDS011;19481;51.118;6.940;2023-06-10T22:50:31;3.70;;;3.40;;
33108;SDS011;19481;51.118;6.940;2023-06-10T22:55:32;4.53;;;3.63;;
33108;SDS011;19481;51.118;6.940;2023-06-10T23:00:34;6.90;;;3.60;;
33108;SDS011;19481;51.118;6.940;2023-06-10T23:05:37;9.48;;;3.60;;
33108;SDS011;19481;51.118;6.940;2023-06-10T23:10:38;5.25;;;3.75;;
33108;SDS011;19481;51.118;6.940;2023-06-10T23:15:40;4.97;;;3.88;;
33108;SDS011;19481;51.118;6.940;2023-06-10T23:20:43;5.38;;;3.70;;
33108;SDS011;19481;51.118;6.940;2023-06-10T23:25:44;7.88;;;4.30;;
33108;SDS011;19481;51.118;6.940;2023-06-10T23:30:46;7.07;;;4.07;;
33108;SDS011;19481;51.118;6.940;2023-06-10T23:35:49;5.05;;;4.22;;
33108;SDS011;19481;51.118;6.940;2023-06-10T23:40:51;4.13;;;3.72;;
33108;SDS011;19481;51.118;6.940;2023-06-10T23:45:52;5.18;;;4.30;;
33108;SDS011;19481;51.118;6.940;2023-06-10T23:50:55;3.88;;;3.50;;
33108;SDS011;19481;51.118;6.940;2023-06-10T23:55:59;7.13;;;3.47;;
